createdAt,value
2023-04-11T00:01:07.905Z,13.20
2023-04-11T00:03:34.718Z,13.17
2023-04-11T00:06:01.434Z,13.07
2023-04-11T00:08:27.965Z,13.23
2023-04-11T00:10:54.468Z,13.70
2023-04-11T00:13:21.008Z,13.97
2023-04-11T00:15:47.897Z,14.17
2023-04-11T00:18:14.557Z,14.10
2023-04-11T00:20:41.041Z,13.93
2023-04-11T00:23:08.880Z,14.70
2023-04-11T00:25:37.236Z,13.10
2023-04-11T00:28:04.631Z,13.83
2023-04-11T00:30:31.171Z,13.97
2023-04-11T00:32:57.678Z,14.13
2023-04-11T00:35:24.282Z,14.40
2023-04-11T00:37:56.008Z,13.57
2023-04-11T00:40:22.848Z,14.20
2023-04-11T00:42:49.404Z,14.43
2023-04-11T00:45:15.933Z,14.37
2023-04-11T00:47:42.513Z,15.17
2023-04-11T00:50:09.480Z,15.60
2023-04-11T00:52:36.949Z,15.27
2023-04-11T00:55:06.978Z,15.27
2023-04-11T00:57:33.901Z,14.70
2023-04-11T01:00:02.300Z,15.87
2023-04-11T01:02:29.672Z,18.10
2023-04-11T01:04:56.747Z,16.70
2023-04-11T01:07:24.767Z,17.37
2023-04-11T01:09:51.524Z,19.37
2023-04-11T01:12:18.212Z,19.63
2023-04-11T01:14:47.784Z,18.87
2023-04-11T01:17:14.695Z,19.60
2023-04-11T01:19:41.449Z,19.40
2023-04-11T01:22:08.155Z,19.97
2023-04-11T01:24:34.729Z,19.37
2023-04-11T01:27:04.258Z,18.07
2023-04-11T01:29:31.618Z,17.10
2023-04-11T01:31:58.155Z,17.50
2023-04-11T01:34:28.141Z,17.23
2023-04-11T01:36:55.260Z,17.90
2023-04-11T01:39:21.736Z,14.60
2023-04-11T01:41:48.702Z,15.77
2023-04-11T01:44:15.492Z,15.50
2023-04-11T01:46:43.147Z,15.20
2023-04-11T01:49:09.802Z,14.97
2023-04-11T01:51:36.527Z,15.00
2023-04-11T01:54:03.937Z,14.30
2023-04-11T01:56:30.439Z,15.03
2023-04-11T01:58:59.104Z,14.20
2023-04-11T02:01:25.756Z,14.10
2023-04-11T02:03:52.432Z,14.73
2023-04-11T02:06:18.973Z,14.53
2023-04-11T02:08:45.439Z,14.20
2023-04-11T02:11:12.051Z,14.70
2023-04-11T02:13:38.586Z,14.60
2023-04-11T02:16:10.121Z,14.03
2023-04-11T02:18:36.961Z,13.57
2023-04-11T02:21:04.745Z,14.03
2023-04-11T02:23:31.227Z,13.63
2023-04-11T02:25:57.782Z,14.10
2023-04-11T02:28:24.349Z,12.90
2023-04-11T02:30:51.091Z,13.33
2023-04-11T02:33:17.691Z,13.50
2023-04-11T02:35:44.259Z,12.33
2023-04-11T02:38:10.771Z,12.17
2023-04-11T02:40:37.291Z,12.87
2023-04-11T02:43:04.326Z,12.30
2023-04-11T02:45:31.193Z,13.00
2023-04-11T02:47:58.459Z,13.20
2023-04-11T02:50:27.076Z,13.27
2023-04-11T02:52:53.799Z,12.90
2023-04-11T02:55:23.224Z,12.53
2023-04-11T02:57:50.665Z,13.20
2023-04-11T03:00:19.653Z,14.17
2023-04-11T03:02:46.235Z,13.57
2023-04-11T03:05:12.819Z,13.20
2023-04-11T03:07:40.644Z,13.67
2023-04-11T03:10:07.859Z,12.73
2023-04-11T03:12:34.355Z,13.03
2023-04-11T03:15:00.871Z,13.07
2023-04-11T03:17:27.377Z,12.87
2023-04-11T03:19:53.917Z,13.70
2023-04-11T03:22:20.561Z,13.30
2023-04-11T03:24:47.117Z,13.13
2023-04-11T03:27:13.631Z,14.03
2023-04-11T03:29:40.210Z,14.87
2023-04-11T03:32:06.825Z,14.20
2023-04-11T03:34:33.511Z,14.97
2023-04-11T03:36:59.991Z,14.73
2023-04-11T03:39:26.472Z,15.07
2023-04-11T03:41:53.012Z,15.80
2023-04-11T03:44:19.687Z,14.90
2023-04-11T03:46:46.298Z,15.67
2023-04-11T03:49:13.175Z,15.30
2023-04-11T03:51:39.629Z,15.97
2023-04-11T03:54:06.097Z,16.17
2023-04-11T03:56:32.721Z,16.63
2023-04-11T03:58:59.209Z,16.00
2023-04-11T04:01:25.824Z,16.50
2023-04-11T04:03:52.692Z,16.60
2023-04-11T04:06:19.423Z,16.93
2023-04-11T04:08:46.058Z,17.63
2023-04-11T04:11:12.715Z,18.07
2023-04-11T04:13:39.375Z,18.70
2023-04-11T04:16:06.437Z,16.83
2023-04-11T04:18:33.160Z,16.73
2023-04-11T04:20:59.776Z,17.83
2023-04-11T04:23:26.906Z,17.93
2023-04-11T04:25:53.503Z,17.67
2023-04-11T04:28:22.599Z,17.17
2023-04-11T04:30:50.157Z,17.33
2023-04-11T04:33:18.682Z,17.37
2023-04-11T04:35:45.340Z,17.97
2023-04-11T04:38:17.729Z,18.10
2023-04-11T04:40:44.617Z,17.30
2023-04-11T04:43:18.285Z,20.90
2023-04-11T04:45:45.539Z,17.50
2023-04-11T04:48:14.451Z,17.23
2023-04-11T04:50:41.272Z,17.67
2023-04-11T04:53:07.824Z,17.70
2023-04-11T04:55:34.502Z,16.63
2023-04-11T04:58:01.338Z,17.43
2023-04-11T05:00:28.135Z,18.23
2023-04-11T05:02:55.118Z,18.13
2023-04-11T05:05:21.730Z,17.63
2023-04-11T05:07:48.550Z,17.80
2023-04-11T05:10:15.383Z,17.93
2023-04-11T05:12:41.909Z,17.17
2023-04-11T05:15:11.801Z,16.70
2023-04-11T05:17:38.757Z,17.70
2023-04-11T05:20:07.788Z,16.23
2023-04-11T05:22:34.754Z,17.93
2023-04-11T05:25:03.124Z,17.03
2023-04-11T05:27:29.639Z,17.30
2023-04-11T05:29:56.177Z,17.67
2023-04-11T05:32:22.987Z,16.60
2023-04-11T05:34:59.141Z,16.83
2023-04-11T05:37:26.419Z,16.33
2023-04-11T05:39:53.057Z,17.13
2023-04-11T05:42:19.595Z,17.13
2023-04-11T05:44:46.277Z,17.50
2023-04-11T05:47:13.332Z,17.57
2023-04-11T05:49:39.882Z,16.37
2023-04-11T05:52:06.836Z,17.43
2023-04-11T05:54:35.285Z,17.50
2023-04-11T05:57:03.106Z,16.60
2023-04-11T05:59:31.847Z,16.07
2023-04-11T06:01:59.012Z,16.80
2023-04-11T06:04:26.116Z,15.67
2023-04-11T06:06:53.732Z,15.63
2023-04-11T06:09:20.621Z,15.47
2023-04-11T06:11:47.284Z,14.67
2023-04-11T06:14:14.065Z,14.90
2023-04-11T06:16:41.279Z,15.00
2023-04-11T06:19:07.863Z,14.73
2023-04-11T06:21:34.712Z,14.40
2023-04-11T06:24:11.581Z,13.53
2023-04-11T06:26:38.285Z,11.93
2023-04-11T06:29:05.910Z,12.37
2023-04-11T06:31:33.438Z,13.27
2023-04-11T06:34:01.562Z,12.90
2023-04-11T06:36:28.527Z,12.67
2023-04-11T06:38:55.048Z,11.53
2023-04-11T06:41:21.883Z,11.00
2023-04-11T06:43:48.484Z,11.40
2023-04-11T06:46:15.065Z,11.33
2023-04-11T06:48:41.898Z,11.03
2023-04-11T06:51:10.378Z,11.13
2023-04-11T06:53:37.020Z,11.57
2023-04-11T06:56:05.374Z,9.67
2023-04-11T06:58:31.923Z,9.47
2023-04-11T07:00:58.832Z,8.77
2023-04-11T07:03:25.834Z,8.70
2023-04-11T07:05:52.610Z,8.70
2023-04-11T07:08:19.178Z,8.97
2023-04-11T07:10:46.075Z,8.67
2023-04-11T07:13:12.867Z,8.07
2023-04-11T07:15:39.912Z,8.60
2023-04-11T07:18:07.046Z,8.73
2023-04-11T07:20:34.522Z,8.20
2023-04-11T07:23:01.200Z,8.23
2023-04-11T07:25:31.472Z,8.23
2023-04-11T07:27:58.189Z,8.07
2023-04-11T07:30:24.837Z,7.93
2023-04-11T07:32:51.838Z,7.33
2023-04-11T07:35:18.768Z,7.43
2023-04-11T07:37:45.627Z,6.93
2023-04-11T07:40:15.733Z,8.03
2023-04-11T07:42:42.569Z,6.90
2023-04-11T07:45:09.770Z,6.77
2023-04-11T07:47:36.542Z,7.00
2023-04-11T07:50:04.717Z,6.70
2023-04-11T07:52:31.554Z,6.60
2023-04-11T07:54:58.185Z,6.50
2023-04-11T07:57:24.720Z,6.40
2023-04-11T07:59:51.349Z,6.30
2023-04-11T08:02:18.433Z,5.97
2023-04-11T08:04:45.197Z,6.13
2023-04-11T08:07:11.899Z,6.63
2023-04-11T08:09:38.870Z,6.83
2023-04-11T08:12:06.242Z,6.40
2023-04-11T08:14:32.920Z,5.90
2023-04-11T08:17:00.215Z,6.50
2023-04-11T08:19:27.227Z,6.17
2023-04-11T08:21:54.176Z,5.43
2023-04-11T08:24:21.205Z,5.60
2023-04-11T08:26:48.025Z,5.13
2023-04-11T08:29:14.607Z,5.07
2023-04-11T08:31:47.026Z,5.10
2023-04-11T08:34:13.857Z,4.77
2023-04-11T08:36:41.698Z,4.43
2023-04-11T08:39:08.888Z,4.17
2023-04-11T08:41:35.773Z,4.17
2023-04-11T08:44:03.783Z,3.47
2023-04-11T08:46:33.161Z,4.00
2023-04-11T08:49:00.727Z,4.10
2023-04-11T08:51:27.600Z,3.70
2023-04-11T08:53:58.013Z,3.90
2023-04-11T08:56:24.900Z,4.33
2023-04-11T08:58:51.824Z,4.03
2023-04-11T09:01:25.191Z,4.03
2023-04-11T09:03:52.460Z,3.60
2023-04-11T09:06:19.289Z,3.60
2023-04-11T09:08:45.938Z,4.30
2023-04-11T09:11:12.572Z,4.13
2023-04-11T09:13:39.483Z,3.57
2023-04-11T09:16:09.763Z,3.63
2023-04-11T09:18:38.458Z,3.67
2023-04-11T09:21:11.701Z,4.03
2023-04-11T09:23:38.753Z,2.90
2023-04-11T09:26:06.692Z,3.00
2023-04-11T09:28:46.244Z,3.23
2023-04-11T09:31:13.165Z,3.47
2023-04-11T09:33:52.842Z,3.20
2023-04-11T09:36:21.986Z,3.37
2023-04-11T09:38:48.663Z,3.00
2023-04-11T09:41:15.696Z,3.10
2023-04-11T09:43:50.784Z,2.70
2023-04-11T09:46:21.441Z,2.70
2023-04-11T09:48:52.734Z,2.70
2023-04-11T09:51:31.852Z,2.77
2023-04-11T09:54:01.757Z,2.97
2023-04-11T09:56:29.045Z,2.93
2023-04-11T09:58:57.611Z,2.97
2023-04-11T10:01:25.130Z,3.20
2023-04-11T10:03:52.768Z,3.13
2023-04-11T10:06:31.810Z,3.10
2023-04-11T10:09:12.708Z,3.97
2023-04-11T10:11:46.158Z,3.60
2023-04-11T10:14:37.497Z,4.07
2023-04-11T10:17:21.833Z,3.67
2023-04-11T10:19:51.597Z,3.93
2023-04-11T10:22:43.647Z,4.23
2023-04-11T10:25:18.530Z,4.30
2023-04-11T10:28:01.479Z,4.20
2023-04-11T10:31:00.857Z,4.70
2023-04-11T10:33:28.258Z,3.37
2023-04-11T10:36:09.942Z,3.67
2023-04-11T10:38:36.998Z,3.43
2023-04-11T10:41:19.042Z,4.13
2023-04-11T10:43:46.461Z,3.83
2023-04-11T10:46:23.893Z,3.30
2023-04-11T10:49:00.979Z,3.60
2023-04-11T10:51:32.020Z,3.60
2023-04-11T10:54:00.182Z,3.50
2023-04-11T10:56:49.022Z,3.57
2023-04-11T10:59:36.543Z,3.80
2023-04-11T11:02:05.044Z,3.80
2023-04-11T11:04:32.332Z,3.20
2023-04-11T11:06:59.789Z,2.93
2023-04-11T11:09:28.497Z,3.40
2023-04-11T11:12:22.887Z,3.57
2023-04-11T11:14:49.915Z,3.43
2023-04-11T11:17:17.262Z,3.20
2023-04-11T11:19:48.149Z,2.70
2023-04-11T11:22:16.422Z,3.10
2023-04-11T11:24:43.151Z,3.10
2023-04-11T11:27:23.746Z,3.23
2023-04-11T11:29:50.932Z,3.30
2023-04-11T11:32:32.860Z,2.70
2023-04-11T11:34:59.560Z,3.20
2023-04-11T11:37:26.248Z,3.73
2023-04-11T11:39:53.662Z,3.70
2023-04-11T11:42:20.812Z,3.27
2023-04-11T11:44:47.772Z,4.30
2023-04-11T11:47:16.950Z,4.00
2023-04-11T11:49:47.837Z,4.00
2023-04-11T11:52:43.695Z,3.53
2023-04-11T11:55:19.404Z,3.83
2023-04-11T11:57:47.030Z,4.03
2023-04-11T12:00:14.909Z,4.10
2023-04-11T12:02:45.103Z,4.27
2023-04-11T12:05:12.633Z,4.07
2023-04-11T12:07:39.686Z,4.10
2023-04-11T12:10:09.179Z,4.10
2023-04-11T12:12:36.965Z,4.10
2023-04-11T12:15:11.939Z,4.27
2023-04-11T12:17:39.039Z,4.60
2023-04-11T12:20:07.840Z,4.30
2023-04-11T12:22:35.107Z,4.70
2023-04-11T12:25:12.347Z,4.50
2023-04-11T12:27:41.016Z,4.90
2023-04-11T12:30:08.954Z,4.30
2023-04-11T12:32:36.105Z,4.40
2023-04-11T12:35:05.335Z,4.40
2023-04-11T12:37:32.792Z,4.40
2023-04-11T12:39:59.620Z,4.73
2023-04-11T12:42:27.380Z,4.23
2023-04-11T12:44:54.615Z,4.63
2023-04-11T12:47:21.500Z,4.67
2023-04-11T12:49:48.125Z,4.50
2023-04-11T12:52:15.058Z,4.80
2023-04-11T12:54:41.687Z,5.00
2023-04-11T12:57:08.300Z,4.77
2023-04-11T12:59:35.123Z,5.00
2023-04-11T13:02:02.104Z,4.60
2023-04-11T13:04:28.990Z,4.90
2023-04-11T13:07:00.796Z,4.70
2023-04-11T13:09:31.706Z,5.10
2023-04-11T13:11:58.983Z,5.30
2023-04-11T13:14:25.676Z,6.07
2023-04-11T13:16:52.402Z,6.37
2023-04-11T13:19:19.118Z,5.37
2023-04-11T13:21:45.647Z,5.93
2023-04-11T13:24:12.237Z,5.70
2023-04-11T13:26:39.532Z,5.10
2023-04-11T13:29:07.763Z,5.67
2023-04-11T13:31:34.792Z,6.43
2023-04-11T13:34:03.678Z,5.67
2023-04-11T13:36:32.265Z,5.90
2023-04-11T13:38:59.142Z,6.07
2023-04-11T13:41:26.179Z,5.80
2023-04-11T13:43:53.036Z,6.20
2023-04-11T13:46:21.891Z,6.53
2023-04-11T13:48:49.002Z,5.77
2023-04-11T13:51:15.922Z,5.97
2023-04-11T13:53:42.727Z,6.43
2023-04-11T13:56:09.434Z,6.03
2023-04-11T13:58:36.922Z,5.53
2023-04-11T14:01:05.064Z,5.87
2023-04-11T14:03:33.871Z,5.27
2023-04-11T14:06:01.322Z,5.90
2023-04-11T14:08:29.273Z,5.80
2023-04-11T14:10:56.470Z,5.23
2023-04-11T14:13:23.259Z,5.50
2023-04-11T14:16:01.381Z,6.07
2023-04-11T14:18:34.311Z,5.00
2023-04-11T14:21:01.946Z,5.27
2023-04-11T14:23:30.189Z,5.70
2023-04-11T14:25:57.021Z,5.37
2023-04-11T14:28:26.439Z,5.60
2023-04-11T14:30:53.843Z,5.20
2023-04-11T14:33:20.736Z,4.90
2023-04-11T14:35:47.656Z,5.30
2023-04-11T14:38:15.856Z,5.57
2023-04-11T14:40:43.021Z,5.30
2023-04-11T14:43:09.909Z,5.17
2023-04-11T14:45:36.957Z,4.70
2023-04-11T14:48:05.581Z,5.77
2023-04-11T14:50:32.579Z,4.83
2023-04-11T14:52:59.224Z,5.03
2023-04-11T14:55:25.860Z,5.00
2023-04-11T14:57:54.874Z,4.23
2023-04-11T15:00:22.910Z,4.70
2023-04-11T15:02:52.901Z,4.87
2023-04-11T15:05:20.244Z,5.07
2023-04-11T15:07:48.157Z,4.83
2023-04-11T15:10:20.822Z,5.40
2023-04-11T15:12:47.436Z,4.90
2023-04-11T15:15:14.521Z,4.70
2023-04-11T15:17:47.111Z,4.70
2023-04-11T15:20:17.113Z,4.77
2023-04-11T15:22:45.162Z,4.90
2023-04-11T15:25:17.072Z,4.57
2023-04-11T15:27:44.014Z,4.70
2023-04-11T15:30:11.420Z,4.70
2023-04-11T15:32:47.140Z,4.83
2023-04-11T15:35:13.770Z,4.50
2023-04-11T15:37:41.140Z,4.67
2023-04-11T15:40:12.202Z,4.70
2023-04-11T15:42:39.157Z,4.43
2023-04-11T15:45:06.755Z,4.60
2023-04-11T15:47:33.669Z,4.30
2023-04-11T15:50:04.242Z,4.80
2023-04-11T15:52:30.779Z,5.80
2023-04-11T15:54:57.322Z,4.17
2023-04-11T15:57:23.921Z,4.60
2023-04-11T15:59:50.534Z,5.70
2023-04-11T16:02:17.202Z,4.70
2023-04-11T16:04:47.011Z,5.77
2023-04-11T16:07:18.769Z,5.00
2023-04-11T16:09:46.302Z,4.73
2023-04-11T16:12:12.792Z,4.93
2023-04-11T16:14:39.251Z,5.30
2023-04-11T16:17:06.365Z,5.27
2023-04-11T16:19:33.186Z,5.30
2023-04-11T16:21:59.771Z,4.97
2023-04-11T16:24:28.795Z,6.10
2023-04-11T16:26:59.310Z,4.93
2023-04-11T16:29:25.903Z,5.03
2023-04-11T16:31:52.642Z,4.80
2023-04-11T16:34:19.663Z,5.40
2023-04-11T16:36:46.390Z,5.43
2023-04-11T16:39:13.139Z,5.07
2023-04-11T16:41:39.771Z,5.67
2023-04-11T16:44:11.450Z,5.13
2023-04-11T16:46:41.649Z,5.27
2023-04-11T16:49:08.630Z,5.23
2023-04-11T16:51:38.137Z,5.83
2023-04-11T16:54:09.541Z,5.80
2023-04-11T16:56:36.817Z,5.60
2023-04-11T16:59:04.975Z,5.43
2023-04-11T17:01:32.434Z,6.10
2023-04-11T17:04:00.962Z,6.67
2023-04-11T17:06:28.134Z,6.43
2023-04-11T17:08:57.067Z,5.87
2023-04-11T17:11:23.795Z,5.90
2023-04-11T17:13:50.993Z,6.10
2023-04-11T17:16:18.351Z,6.80
2023-04-11T17:18:45.179Z,6.23
2023-04-11T17:21:11.804Z,6.30
2023-04-11T17:23:42.989Z,6.67
2023-04-11T17:26:11.833Z,5.60
2023-04-11T17:28:39.863Z,6.03
2023-04-11T17:31:13.157Z,5.83
2023-04-11T17:33:40.237Z,5.50
2023-04-11T17:36:09.310Z,6.33
2023-04-11T17:38:37.438Z,5.83
2023-04-11T17:41:13.539Z,6.27
2023-04-11T17:43:41.560Z,6.40
2023-04-11T17:46:08.915Z,6.20
2023-04-11T17:48:36.970Z,6.90
2023-04-11T17:51:05.556Z,9.67
2023-04-11T17:53:32.875Z,6.53
2023-04-11T17:56:04.839Z,15.33
2023-04-11T17:58:31.927Z,11.13
2023-04-11T18:00:59.612Z,10.87
2023-04-11T18:03:26.504Z,9.20
2023-04-11T18:05:54.651Z,7.00
2023-04-11T18:08:26.029Z,8.23
2023-04-11T18:11:00.172Z,7.20
2023-04-11T18:13:27.697Z,8.03
2023-04-11T18:15:54.320Z,7.47
2023-04-11T18:18:21.277Z,7.40
2023-04-11T18:20:48.134Z,7.27
2023-04-11T18:23:14.688Z,7.33
2023-04-11T18:25:41.406Z,8.27
2023-04-11T18:28:08.090Z,7.87
2023-04-11T18:30:34.563Z,7.17
2023-04-11T18:33:01.807Z,8.53
2023-04-11T18:35:28.772Z,7.57
2023-04-11T18:37:55.902Z,7.50
2023-04-11T18:40:22.763Z,8.10
2023-04-11T18:42:51.987Z,8.17
2023-04-11T18:45:21.858Z,8.30
2023-04-11T18:47:48.965Z,8.37
2023-04-11T18:50:16.191Z,8.37
2023-04-11T18:52:44.598Z,7.50
2023-04-11T18:55:12.419Z,8.70
2023-04-11T18:57:39.391Z,8.80
2023-04-11T19:00:18.639Z,8.37
2023-04-11T19:02:46.823Z,8.10
2023-04-11T19:05:14.223Z,7.87
2023-04-11T19:07:42.179Z,8.47
2023-04-11T19:10:10.339Z,8.10
2023-04-11T19:12:37.211Z,8.87
2023-04-11T19:15:09.190Z,8.57
2023-04-11T19:17:36.671Z,9.37
2023-04-11T19:20:07.268Z,8.93
2023-04-11T19:22:34.603Z,9.40
2023-04-11T19:25:01.332Z,8.90
2023-04-11T19:27:27.968Z,9.07
2023-04-11T19:29:54.768Z,9.57
2023-04-11T19:32:21.943Z,9.83
2023-04-11T19:34:49.583Z,9.97
2023-04-11T19:37:19.409Z,10.57
2023-04-11T19:39:46.238Z,11.07
2023-04-11T19:42:12.804Z,10.47
2023-04-11T19:44:40.063Z,10.37
2023-04-11T19:47:06.771Z,10.70
2023-04-11T19:49:33.361Z,10.90
2023-04-11T19:51:59.985Z,9.77
2023-04-11T19:54:27.023Z,10.03
2023-04-11T19:56:53.643Z,9.43
2023-04-11T19:59:20.800Z,9.73
2023-04-11T20:01:47.572Z,10.13
2023-04-11T20:04:15.870Z,10.30
2023-04-11T20:06:44.278Z,10.67
2023-04-11T20:09:11.919Z,10.43
2023-04-11T20:11:39.487Z,10.90
2023-04-11T20:14:07.216Z,10.70
2023-04-11T20:16:33.808Z,10.63
2023-04-11T20:19:01.541Z,11.10
2023-04-11T20:21:28.446Z,11.70
2023-04-11T20:23:55.013Z,12.03
2023-04-11T20:26:21.802Z,11.37
2023-04-11T20:28:49.783Z,10.83
2023-04-11T20:31:16.704Z,11.23
2023-04-11T20:33:44.207Z,11.37
2023-04-11T20:36:11.416Z,13.13
2023-04-11T20:38:38.122Z,11.53
2023-04-11T20:41:05.795Z,12.23
2023-04-11T20:43:32.401Z,12.43
2023-04-11T20:45:59.215Z,13.13
2023-04-11T20:48:25.990Z,12.33
2023-04-11T20:50:53.657Z,12.60
2023-04-11T20:53:20.254Z,11.90
2023-04-11T20:55:46.896Z,12.80
2023-04-11T20:58:17.291Z,12.50
2023-04-11T21:00:44.531Z,11.80
2023-04-11T21:03:11.321Z,13.37
2023-04-11T21:05:38.396Z,12.23
2023-04-11T21:08:06.425Z,12.53
2023-04-11T21:10:32.949Z,12.70
2023-04-11T21:12:59.634Z,13.83
2023-04-11T21:15:26.287Z,14.20
2023-04-11T21:17:52.885Z,16.97
2023-04-11T21:20:20.288Z,17.90
2023-04-11T21:22:48.068Z,16.53
2023-04-11T21:25:15.981Z,17.37
2023-04-11T21:27:43.311Z,17.60
2023-04-11T21:30:10.537Z,18.63
2023-04-11T21:32:37.163Z,18.53
2023-04-11T21:35:10.301Z,17.90
2023-04-11T21:37:36.808Z,19.03
2023-04-11T21:40:04.342Z,19.50
2023-04-11T21:42:31.206Z,19.87
2023-04-11T21:44:57.737Z,18.03
2023-04-11T21:47:24.250Z,19.87
2023-04-11T21:49:51.017Z,19.13
2023-04-11T21:52:17.670Z,19.07
2023-04-11T21:54:44.347Z,17.47
2023-04-11T21:57:11.309Z,19.43
2023-04-11T21:59:39.125Z,19.43
2023-04-11T22:02:06.499Z,18.80
2023-04-11T22:04:39.019Z,19.53
2023-04-11T22:07:14.934Z,19.30
2023-04-11T22:09:46.403Z,18.83
2023-04-11T22:12:17.329Z,19.83
2023-04-11T22:14:43.854Z,19.23
2023-04-11T22:17:10.409Z,21.33
2023-04-11T22:19:36.953Z,21.00
2023-04-11T22:22:08.207Z,18.93
2023-04-11T22:24:34.857Z,19.73
2023-04-11T22:27:04.201Z,20.20
2023-04-11T22:29:31.239Z,20.00
2023-04-11T22:31:59.480Z,18.10
2023-04-11T22:34:29.719Z,17.47
2023-04-11T22:36:57.718Z,18.87
2023-04-11T22:39:25.567Z,19.07
2023-04-11T22:41:52.586Z,19.40
2023-04-11T22:44:19.299Z,20.20
2023-04-11T22:47:06.756Z,20.67
2023-04-11T22:49:40.282Z,20.27
2023-04-11T22:52:08.066Z,20.90
2023-04-11T22:54:35.213Z,21.13
2023-04-11T22:57:01.748Z,21.13
2023-04-11T22:59:28.500Z,20.67
2023-04-11T23:01:55.077Z,19.93
2023-04-11T23:04:22.159Z,20.43
2023-04-11T23:06:52.056Z,22.10
2023-04-11T23:09:18.675Z,21.37
2023-04-11T23:11:45.814Z,19.93
2023-04-11T23:14:14.298Z,21.60
2023-04-11T23:16:44.458Z,22.43
2023-04-11T23:19:11.082Z,21.80
2023-04-11T23:21:37.859Z,21.93
2023-04-11T23:24:06.681Z,21.93
2023-04-11T23:26:33.489Z,22.27
2023-04-11T23:29:02.477Z,23.30
2023-04-11T23:31:30.096Z,21.60
2023-04-11T23:33:56.963Z,22.27
2023-04-11T23:36:23.827Z,21.13
2023-04-11T23:38:50.278Z,21.10
2023-04-11T23:41:16.765Z,21.97
2023-04-11T23:43:43.373Z,21.47
2023-04-11T23:46:09.962Z,20.53
2023-04-11T23:48:36.971Z,19.73
2023-04-11T23:51:04.376Z,20.10
2023-04-11T23:53:31.748Z,20.57
2023-04-11T23:55:58.377Z,20.27
2023-04-11T23:58:24.992Z,20.07
